sensor_id;sensor_type;location;lat;lon;timestamp;pressure;altitude;pressure_sealevel;temperature;humidity
47636;BME280;33364;50.766;15.338;2023-07-29T00:00:34;94659.69;;;15.31;83.68
47636;BME280;33364;50.766;15.338;2023-07-29T00:03:20;94651.50;;;15.36;83.44
47636;BME280;33364;50.766;15.338;2023-07-29T00:05:47;94642.34;;;15.25;84.33
47636;BME280;33364;50.766;15.338;2023-07-29T00:08:13;94642.31;;;15.33;83.73
47636;BME280;33364;50.766;15.338;2023-07-29T00:10:39;94644.09;;;15.20;84.61
47636;BME280;33364;50.766;15.338;2023-07-29T00:13:05;94642.38;;;15.16;84.75
47636;BME280;33364;50.766;15.338;2023-07-29T00:15:31;94643.53;;;15.06;85.13
47636;BME280;33364;50.766;15.338;2023-07-29T00:17:57;94646.03;;;15.11;84.38
47636;BME280;33364;50.766;15.338;2023-07-29T00:20:23;94651.53;;;14.98;85.03
47636;BME280;33364;50.766;15.338;2023-07-29T00:22:49;94644.63;;;15.05;84.78
47636;BME280;33364;50.766;15.338;2023-07-29T00:25:17;94640.03;;;15.14;84.60
47636;BME280;33364;50.766;15.338;2023-07-29T00:27:43;94640.88;;;15.06;85.08
47636;BME280;33364;50.766;15.338;2023-07-29T00:30:09;94647.44;;;15.09;85.36
47636;BME280;33364;50.766;15.338;2023-07-29T00:32:35;94641.59;;;15.15;85.12
47636;BME280;33364;50.766;15.338;2023-07-29T00:35:01;94641.78;;;15.10;85.43
47636;BME280;33364;50.766;15.338;2023-07-29T00:37:29;94640.69;;;15.11;85.65
47636;BME280;33364;50.766;15.338;2023-07-29T00:39:56;94635.50;;;15.15;85.01
47636;BME280;33364;50.766;15.338;2023-07-29T00:42:22;94627.84;;;15.13;84.97
47636;BME280;33364;50.766;15.338;2023-07-29T00:44:47;94634.53;;;15.19;84.64
47636;BME280;33364;50.766;15.338;2023-07-29T00:47:15;94631.25;;;15.23;84.57
47636;BME280;33364;50.766;15.338;2023-07-29T00:49:42;94627.03;;;15.21;85.06
47636;BME280;33364;50.766;15.338;2023-07-29T00:52:08;94625.66;;;15.15;85.10
47636;BME280;33364;50.766;15.338;2023-07-29T00:54:36;94619.69;;;15.18;84.61
47636;BME280;33364;50.766;15.338;2023-07-29T00:57:02;94618.28;;;15.21;84.49
47636;BME280;33364;50.766;15.338;2023-07-29T00:59:28;94617.78;;;15.19;84.68
47636;BME280;33364;50.766;15.338;2023-07-29T01:01:56;94623.28;;;15.23;84.33
47636;BME280;33364;50.766;15.338;2023-07-29T01:04:21;94623.41;;;15.26;84.52
47636;BME280;33364;50.766;15.338;2023-07-29T01:06:55;94621.91;;;15.16;84.49
47636;BME280;33364;50.766;15.338;2023-07-29T01:12:34;94616.22;;;15.18;84.61
47636;BME280;33364;50.766;15.338;2023-07-29T01:17:37;94614.72;;;15.08;85.38
47636;BME280;33364;50.766;15.338;2023-07-29T01:20:08;94613.81;;;15.04;85.34
47636;BME280;33364;50.766;15.338;2023-07-29T01:22:36;94617.84;;;15.10;84.52
47636;BME280;33364;50.766;15.338;2023-07-29T01:25:02;94611.81;;;15.01;84.95
47636;BME280;33364;50.766;15.338;2023-07-29T01:27:29;94612.75;;;14.97;84.97
47636;BME280;33364;50.766;15.338;2023-07-29T01:29:55;94614.06;;;14.91;85.29
47636;BME280;33364;50.766;15.338;2023-07-29T01:35:26;94604.53;;;14.81;85.43
47636;BME280;33364;50.766;15.338;2023-07-29T01:38:02;94604.81;;;14.88;85.06
47636;BME280;33364;50.766;15.338;2023-07-29T01:40:28;94605.94;;;14.87;85.38
47636;BME280;33364;50.766;15.338;2023-07-29T01:42:54;94613.81;;;14.75;86.23
47636;BME280;33364;50.766;15.338;2023-07-29T01:45:24;94611.91;;;14.75;85.97
47636;BME280;33364;50.766;15.338;2023-07-29T01:47:53;94612.75;;;14.67;86.63
47636;BME280;33364;50.766;15.338;2023-07-29T01:50:19;94612.28;;;14.65;87.57
47636;BME280;33364;50.766;15.338;2023-07-29T01:52:45;94614.00;;;14.61;87.07
47636;BME280;33364;50.766;15.338;2023-07-29T01:55:11;94616.97;;;14.68;86.29
47636;BME280;33364;50.766;15.338;2023-07-29T01:57:37;94608.66;;;14.70;86.47
47636;BME280;33364;50.766;15.338;2023-07-29T02:00:02;94614.13;;;14.73;86.51
47636;BME280;33364;50.766;15.338;2023-07-29T02:02:29;94618.00;;;14.76;86.80
47636;BME280;33364;50.766;15.338;2023-07-29T02:04:55;94615.16;;;14.81;86.88
47636;BME280;33364;50.766;15.338;2023-07-29T02:07:21;94606.09;;;14.82;87.06
47636;BME280;33364;50.766;15.338;2023-07-29T02:09:47;94608.16;;;14.76;87.17
47636;BME280;33364;50.766;15.338;2023-07-29T02:12:13;94608.94;;;14.77;87.11
47636;BME280;33364;50.766;15.338;2023-07-29T02:14:38;94609.06;;;14.80;87.47
47636;BME280;33364;50.766;15.338;2023-07-29T02:17:04;94609.50;;;14.91;87.02
47636;BME280;33364;50.766;15.338;2023-07-29T02:19:30;94611.72;;;14.89;87.67
47636;BME280;33364;50.766;15.338;2023-07-29T02:21:56;94610.28;;;14.92;87.68
47636;BME280;33364;50.766;15.338;2023-07-29T02:24:21;94604.19;;;14.91;87.81
47636;BME280;33364;50.766;15.338;2023-07-29T02:26:47;94594.97;;;14.89;87.67
47636;BME280;33364;50.766;15.338;2023-07-29T02:29:13;94598.84;;;14.91;87.69
47636;BME280;33364;50.766;15.338;2023-07-29T02:31:39;94599.63;;;14.92;87.75
47636;BME280;33364;50.766;15.338;2023-07-29T02:34:05;94605.56;;;14.97;87.28
47636;BME280;33364;50.766;15.338;2023-07-29T02:36:31;94608.63;;;15.08;86.58
47636;BME280;33364;50.766;15.338;2023-07-29T02:38:56;94609.56;;;15.12;86.85
47636;BME280;33364;50.766;15.338;2023-07-29T02:41:22;94606.75;;;15.08;87.33
47636;BME280;33364;50.766;15.338;2023-07-29T02:43:49;94609.88;;;15.10;87.09
47636;BME280;33364;50.766;15.338;2023-07-29T02:46:15;94612.03;;;15.17;86.38
47636;BME280;33364;50.766;15.338;2023-07-29T02:48:42;94612.94;;;15.21;86.49
47636;BME280;33364;50.766;15.338;2023-07-29T02:51:08;94615.63;;;15.12;86.96
47636;BME280;33364;50.766;15.338;2023-07-29T02:53:34;94613.75;;;15.13;86.93
47636;BME280;33364;50.766;15.338;2023-07-29T02:56:03;94614.34;;;15.18;86.39
47636;BME280;33364;50.766;15.338;2023-07-29T02:58:29;94614.16;;;15.23;86.27
47636;BME280;33364;50.766;15.338;2023-07-29T03:01:05;94615.69;;;15.33;85.63
47636;BME280;33364;50.766;15.338;2023-07-29T03:03:32;94616.63;;;15.29;86.89
47636;BME280;33364;50.766;15.338;2023-07-29T03:06:06;94621.03;;;15.33;86.20
47636;BME280;33364;50.766;15.338;2023-07-29T03:08:33;94622.38;;;15.39;86.26
47636;BME280;33364;50.766;15.338;2023-07-29T03:11:05;94617.56;;;15.33;87.30
47636;BME280;33364;50.766;15.338;2023-07-29T03:13:31;94618.00;;;15.35;87.20
47636;BME280;33364;50.766;15.338;2023-07-29T03:16:15;94621.78;;;15.34;87.12
47636;BME280;33364;50.766;15.338;2023-07-29T03:18:42;94620.03;;;15.38;86.93
47636;BME280;33364;50.766;15.338;2023-07-29T03:21:09;94623.16;;;15.40;86.96
47636;BME280;33364;50.766;15.338;2023-07-29T03:23:35;94613.47;;;15.35;87.40
47636;BME280;33364;50.766;15.338;2023-07-29T03:26:03;94612.06;;;15.38;87.54
47636;BME280;33364;50.766;15.338;2023-07-29T03:28:37;94613.97;;;15.29;87.86
47636;BME280;33364;50.766;15.338;2023-07-29T03:31:03;94609.00;;;15.27;87.46
47636;BME280;33364;50.766;15.338;2023-07-29T03:33:29;94616.97;;;15.27;87.45
47636;BME280;33364;50.766;15.338;2023-07-29T03:35:55;94612.88;;;15.30;86.81
47636;BME280;33364;50.766;15.338;2023-07-29T03:38:21;94614.75;;;15.29;87.14
47636;BME280;33364;50.766;15.338;2023-07-29T03:40:47;94618.06;;;15.26;87.50
47636;BME280;33364;50.766;15.338;2023-07-29T03:43:12;94616.81;;;15.23;87.38
47636;BME280;33364;50.766;15.338;2023-07-29T03:45:41;94618.72;;;15.23;87.39
47636;BME280;33364;50.766;15.338;2023-07-29T03:48:07;94608.72;;;15.20;87.21
47636;BME280;33364;50.766;15.338;2023-07-29T03:50:34;94616.81;;;15.23;87.19
47636;BME280;33364;50.766;15.338;2023-07-29T03:53:04;94619.44;;;15.32;86.99
47636;BME280;33364;50.766;15.338;2023-07-29T03:55:31;94621.94;;;15.37;87.05
47636;BME280;33364;50.766;15.338;2023-07-29T03:57:57;94615.31;;;15.43;86.93
47636;BME280;33364;50.766;15.338;2023-07-29T04:00:23;94624.63;;;15.49;86.61
47636;BME280;33364;50.766;15.338;2023-07-29T04:02:49;94621.72;;;15.42;87.72
47636;BME280;33364;50.766;15.338;2023-07-29T04:05:16;94623.63;;;15.42;87.36
47636;BME280;33364;50.766;15.338;2023-07-29T04:07:42;94627.84;;;15.43;87.22
47636;BME280;33364;50.766;15.338;2023-07-29T04:10:09;94626.59;;;15.40;87.15
47636;BME280;33364;50.766;15.338;2023-07-29T04:12:34;94625.03;;;15.39;87.02
47636;BME280;33364;50.766;15.338;2023-07-29T04:15:01;94623.03;;;15.36;87.24
47636;BME280;33364;50.766;15.338;2023-07-29T04:17:27;94622.31;;;15.27;87.43
47636;BME280;33364;50.766;15.338;2023-07-29T04:19:53;94613.38;;;15.23;87.78
47636;BME280;33364;50.766;15.338;2023-07-29T04:22:18;94615.41;;;15.26;87.25
47636;BME280;33364;50.766;15.338;2023-07-29T04:24:44;94620.56;;;15.31;86.88
47636;BME280;33364;50.766;15.338;2023-07-29T04:27:10;94619.31;;;15.29;86.95
47636;BME280;33364;50.766;15.338;2023-07-29T04:29:36;94619.97;;;15.26;87.48
47636;BME280;33364;50.766;15.338;2023-07-29T04:32:02;94623.09;;;15.28;87.23
47636;BME280;33364;50.766;15.338;2023-07-29T04:34:29;94625.09;;;15.31;87.23
47636;BME280;33364;50.766;15.338;2023-07-29T04:36:54;94622.25;;;15.36;86.91
47636;BME280;33364;50.766;15.338;2023-07-29T04:39:20;94624.72;;;15.41;87.23
47636;BME280;33364;50.766;15.338;2023-07-29T04:41:46;94629.06;;;15.45;87.22
47636;BME280;33364;50.766;15.338;2023-07-29T04:44:12;94638.28;;;15.48;87.31
47636;BME280;33364;50.766;15.338;2023-07-29T04:46:38;94636.25;;;15.53;87.22
47636;BME280;33364;50.766;15.338;2023-07-29T04:49:04;94636.38;;;15.57;87.17
47636;BME280;33364;50.766;15.338;2023-07-29T04:51:30;94635.88;;;15.63;87.25
47636;BME280;33364;50.766;15.338;2023-07-29T04:53:58;94638.97;;;15.66;86.89
47636;BME280;33364;50.766;15.338;2023-07-29T04:56:23;94644.88;;;15.71;86.51
47636;BME280;33364;50.766;15.338;2023-07-29T04:58:49;94650.00;;;15.76;87.05
47636;BME280;33364;50.766;15.338;2023-07-29T05:01:15;94647.13;;;15.81;87.24
47636;BME280;33364;50.766;15.338;2023-07-29T05:03:41;94643.53;;;15.86;87.40
47636;BME280;33364;50.766;15.338;2023-07-29T05:06:07;94648.19;;;15.89;87.40
47636;BME280;33364;50.766;15.338;2023-07-29T05:08:33;94644.22;;;15.95;87.39
47636;BME280;33364;50.766;15.338;2023-07-29T05:10:58;94647.00;;;15.98;87.40
47636;BME280;33364;50.766;15.338;2023-07-29T05:13:24;94646.03;;;16.03;86.06
47636;BME280;33364;50.766;15.338;2023-07-29T05:15:50;94649.28;;;16.09;85.67
47636;BME280;33364;50.766;15.338;2023-07-29T05:18:17;94652.81;;;16.13;85.11
47636;BME280;33364;50.766;15.338;2023-07-29T05:20:42;94651.41;;;16.15;85.18
47636;BME280;33364;50.766;15.338;2023-07-29T05:23:08;94645.41;;;16.18;84.97
47636;BME280;33364;50.766;15.338;2023-07-29T05:25:34;94635.69;;;16.22;84.39
47636;BME280;33364;50.766;15.338;2023-07-29T05:28:03;94644.88;;;16.25;84.68
47636;BME280;33364;50.766;15.338;2023-07-29T05:30:29;94633.59;;;16.28;84.93
47636;BME280;33364;50.766;15.338;2023-07-29T05:33:00;94638.94;;;16.28;85.78
47636;BME280;33364;50.766;15.338;2023-07-29T05:35:26;94641.25;;;16.29;85.93
47636;BME280;33364;50.766;15.338;2023-07-29T05:37:52;94630.94;;;16.28;85.71
47636;BME280;33364;50.766;15.338;2023-07-29T05:40:17;94633.81;;;16.35;85.38
47636;BME280;33364;50.766;15.338;2023-07-29T05:42:44;94636.28;;;16.40;85.38
47636;BME280;33364;50.766;15.338;2023-07-29T05:45:10;94635.63;;;16.43;84.49
47636;BME280;33364;50.766;15.338;2023-07-29T05:47:37;94648.59;;;16.44;84.19
47636;BME280;33364;50.766;15.338;2023-07-29T05:50:03;94651.41;;;16.48;84.19
47636;BME280;33364;50.766;15.338;2023-07-29T05:52:31;94656.75;;;16.48;84.40
47636;BME280;33364;50.766;15.338;2023-07-29T05:54:56;94648.06;;;16.51;84.23
47636;BME280;33364;50.766;15.338;2023-07-29T05:57:22;94646.97;;;16.52;84.46
47636;BME280;33364;50.766;15.338;2023-07-29T05:59:48;94647.44;;;16.54;84.47
47636;BME280;33364;50.766;15.338;2023-07-29T06:02:14;94648.31;;;16.58;84.87
47636;BME280;33364;50.766;15.338;2023-07-29T06:04:40;94652.81;;;16.66;84.01
47636;BME280;33364;50.766;15.338;2023-07-29T06:07:06;94656.16;;;16.63;84.38
47636;BME280;33364;50.766;15.338;2023-07-29T06:09:32;94653.47;;;16.63;84.41
47636;BME280;33364;50.766;15.338;2023-07-29T06:11:58;94647.25;;;16.59;85.41
47636;BME280;33364;50.766;15.338;2023-07-29T06:14:24;94645.88;;;16.53;84.72
47636;BME280;33364;50.766;15.338;2023-07-29T06:16:49;94644.03;;;16.66;84.91
47636;BME280;33364;50.766;15.338;2023-07-29T06:19:15;94643.41;;;16.81;84.18
47636;BME280;33364;50.766;15.338;2023-07-29T06:21:42;94636.63;;;16.96;83.80
47636;BME280;33364;50.766;15.338;2023-07-29T06:24:07;94646.75;;;16.90;84.29
47636;BME280;33364;50.766;15.338;2023-07-29T06:26:33;94641.63;;;16.85;84.71
47636;BME280;33364;50.766;15.338;2023-07-29T06:28:59;94639.72;;;16.98;84.84
47636;BME280;33364;50.766;15.338;2023-07-29T06:31:25;94645.28;;;17.05;84.53
47636;BME280;33364;50.766;15.338;2023-07-29T06:33:50;94644.19;;;17.18;83.92
47636;BME280;33364;50.766;15.338;2023-07-29T06:36:16;94645.63;;;17.15;84.24
47636;BME280;33364;50.766;15.338;2023-07-29T06:38:43;94650.97;;;17.15;84.73
47636;BME280;33364;50.766;15.338;2023-07-29T06:41:09;94648.41;;;17.07;84.84
47636;BME280;33364;50.766;15.338;2023-07-29T06:43:34;94648.84;;;17.21;84.45
47636;BME280;33364;50.766;15.338;2023-07-29T06:46:00;94638.97;;;17.21;84.44
47636;BME280;33364;50.766;15.338;2023-07-29T06:48:26;94636.63;;;17.32;84.86
47636;BME280;33364;50.766;15.338;2023-07-29T06:50:52;94638.50;;;17.31;83.82
47636;BME280;33364;50.766;15.338;2023-07-29T06:53:17;94636.06;;;17.39;83.38
47636;BME280;33364;50.766;15.338;2023-07-29T06:55:44;94638.16;;;17.45;83.46
47636;BME280;33364;50.766;15.338;2023-07-29T06:58:10;94637.97;;;17.38;83.27
47636;BME280;33364;50.766;15.338;2023-07-29T07:00:36;94628.16;;;17.42;83.83
47636;BME280;33364;50.766;15.338;2023-07-29T07:03:02;94636.16;;;17.42;84.02
47636;BME280;33364;50.766;15.338;2023-07-29T07:05:28;94629.59;;;17.52;82.01
47636;BME280;33364;50.766;15.338;2023-07-29T07:07:53;94624.16;;;17.48;82.96
47636;BME280;33364;50.766;15.338;2023-07-29T07:10:19;94633.03;;;17.52;82.41
47636;BME280;33364;50.766;15.338;2023-07-29T07:12:45;94633.03;;;17.52;83.09
47636;BME280;33364;50.766;15.338;2023-07-29T07:15:11;94628.47;;;17.53;83.46
47636;BME280;33364;50.766;15.338;2023-07-29T07:17:36;94630.81;;;17.54;83.50
47636;BME280;33364;50.766;15.338;2023-07-29T07:20:03;94622.38;;;17.64;83.42
47636;BME280;33364;50.766;15.338;2023-07-29T07:22:29;94617.66;;;17.73;82.56
47636;BME280;33364;50.766;15.338;2023-07-29T07:24:55;94631.00;;;17.86;81.84
47636;BME280;33364;50.766;15.338;2023-07-29T07:27:20;94629.81;;;17.71;82.54
47636;BME280;33364;50.766;15.338;2023-07-29T07:29:46;94632.97;;;17.89;82.35
47636;BME280;33364;50.766;15.338;2023-07-29T07:32:12;94627.22;;;17.87;82.38
47636;BME280;33364;50.766;15.338;2023-07-29T07:34:38;94619.53;;;18.13;81.34
47636;BME280;33364;50.766;15.338;2023-07-29T07:37:04;94619.88;;;18.11;81.52
47636;BME280;33364;50.766;15.338;2023-07-29T07:39:31;94617.06;;;18.36;81.38
47636;BME280;33364;50.766;15.338;2023-07-29T07:41:57;94612.91;;;18.50;80.37
47636;BME280;33364;50.766;15.338;2023-07-29T07:44:23;94605.19;;;18.77;79.57
47636;BME280;33364;50.766;15.338;2023-07-29T07:46:52;94599.03;;;18.92;79.35
47636;BME280;33364;50.766;15.338;2023-07-29T07:49:18;94595.72;;;19.14;78.43
47636;BME280;33364;50.766;15.338;2023-07-29T07:51:44;94600.50;;;19.05;77.89
47636;BME280;33364;50.766;15.338;2023-07-29T07:54:10;94599.97;;;19.15;77.51
47636;BME280;33364;50.766;15.338;2023-07-29T07:56:35;94605.66;;;19.29;77.23
47636;BME280;33364;50.766;15.338;2023-07-29T07:59:01;94617.13;;;19.30;77.96
47636;BME280;33364;50.766;15.338;2023-07-29T08:01:27;94619.13;;;19.17;77.20
47636;BME280;33364;50.766;15.338;2023-07-29T08:03:53;94618.53;;;19.08;77.75
47636;BME280;33364;50.766;15.338;2023-07-29T08:06:19;94620.00;;;19.21;78.48
47636;BME280;33364;50.766;15.338;2023-07-29T08:08:45;94621.84;;;19.36;77.32
47636;BME280;33364;50.766;15.338;2023-07-29T08:11:10;94627.72;;;19.58;76.54
47636;BME280;33364;50.766;15.338;2023-07-29T08:13:36;94625.31;;;19.53;75.91
47636;BME280;33364;50.766;15.338;2023-07-29T08:16:02;94628.34;;;19.51;74.78
47636;BME280;33364;50.766;15.338;2023-07-29T08:18:30;94626.16;;;19.41;75.71
47636;BME280;33364;50.766;15.338;2023-07-29T08:20:59;94622.13;;;19.31;75.41
47636;BME280;33364;50.766;15.338;2023-07-29T08:23:25;94612.22;;;19.16;76.14
47636;BME280;33364;50.766;15.338;2023-07-29T08:25:55;94622.94;;;19.16;76.68
47636;BME280;33364;50.766;15.338;2023-07-29T08:28:22;94614.03;;;19.12;76.41
47636;BME280;33364;50.766;15.338;2023-07-29T08:30:51;94624.16;;;19.03;76.91
47636;BME280;33364;50.766;15.338;2023-07-29T08:33:17;94625.53;;;18.97;76.74
47636;BME280;33364;50.766;15.338;2023-07-29T08:35:43;94618.97;;;19.10;76.16
47636;BME280;33364;50.766;15.338;2023-07-29T08:38:09;94616.47;;;18.86;76.71
47636;BME280;33364;50.766;15.338;2023-07-29T08:40:35;94616.22;;;18.91;76.55
47636;BME280;33364;50.766;15.338;2023-07-29T08:43:04;94614.72;;;19.09;75.79
47636;BME280;33364;50.766;15.338;2023-07-29T08:45:34;94616.94;;;19.38;76.60
47636;BME280;33364;50.766;15.338;2023-07-29T08:48:02;94609.69;;;19.74;75.90
47636;BME280;33364;50.766;15.338;2023-07-29T08:50:32;94614.44;;;19.80;73.98
47636;BME280;33364;50.766;15.338;2023-07-29T08:52:59;94604.56;;;19.65;73.53
47636;BME280;33364;50.766;15.338;2023-07-29T08:55:26;94611.31;;;19.78;72.82
47636;BME280;33364;50.766;15.338;2023-07-29T08:57:53;94603.72;;;19.80;73.74
47636;BME280;33364;50.766;15.338;2023-07-29T09:00:20;94597.50;;;19.76;73.37
47636;BME280;33364;50.766;15.338;2023-07-29T09:02:46;94597.91;;;19.59;74.81
47636;BME280;33364;50.766;15.338;2023-07-29T09:05:11;94603.03;;;19.49;74.35
47636;BME280;33364;50.766;15.338;2023-07-29T09:07:38;94586.13;;;19.45;73.44
47636;BME280;33364;50.766;15.338;2023-07-29T09:10:05;94591.84;;;19.62;73.65
47636;BME280;33364;50.766;15.338;2023-07-29T09:12:34;94595.91;;;19.72;73.38
47636;BME280;33364;50.766;15.338;2023-07-29T09:14:59;94595.94;;;19.95;72.17
47636;BME280;33364;50.766;15.338;2023-07-29T09:17:25;94605.13;;;20.13;72.37
47636;BME280;33364;50.766;15.338;2023-07-29T09:19:51;94597.00;;;20.29;71.47
47636;BME280;33364;50.766;15.338;2023-07-29T09:22:21;94588.25;;;20.51;70.67
47636;BME280;33364;50.766;15.338;2023-07-29T09:24:47;94588.34;;;20.81;69.93
47636;BME280;33364;50.766;15.338;2023-07-29T09:27:26;94589.41;;;21.22;68.91
47636;BME280;33364;50.766;15.338;2023-07-29T09:29:53;94580.91;;;21.72;68.19
47636;BME280;33364;50.766;15.338;2023-07-29T09:32:21;94579.38;;;21.75;66.82
47636;BME280;33364;50.766;15.338;2023-07-29T09:34:47;94588.28;;;21.79;66.90
47636;BME280;33364;50.766;15.338;2023-07-29T09:37:23;94589.47;;;21.25;66.42
47636;BME280;33364;50.766;15.338;2023-07-29T09:39:49;94599.84;;;21.27;67.29
47636;BME280;33364;50.766;15.338;2023-07-29T09:42:21;94595.53;;;20.99;67.15
47636;BME280;33364;50.766;15.338;2023-07-29T09:44:49;94597.09;;;21.00;67.15
47636;BME280;33364;50.766;15.338;2023-07-29T09:47:22;94595.69;;;20.84;68.28
47636;BME280;33364;50.766;15.338;2023-07-29T09:49:49;94596.22;;;20.70;68.49
47636;BME280;33364;50.766;15.338;2023-07-29T09:52:19;94589.88;;;20.36;69.32
47636;BME280;33364;50.766;15.338;2023-07-29T09:54:46;94601.16;;;20.26;69.04
47636;BME280;33364;50.766;15.338;2023-07-29T09:57:17;94597.69;;;20.25;70.66
47636;BME280;33364;50.766;15.338;2023-07-29T09:59:53;94601.22;;;20.10;70.23
47636;BME280;33364;50.766;15.338;2023-07-29T10:02:20;94608.34;;;20.22;70.31
47636;BME280;33364;50.766;15.338;2023-07-29T10:04:46;94606.03;;;20.20;70.77
47636;BME280;33364;50.766;15.338;2023-07-29T10:07:14;94605.69;;;20.03;71.29
47636;BME280;33364;50.766;15.338;2023-07-29T10:09:40;94604.69;;;20.11;70.28
47636;BME280;33364;50.766;15.338;2023-07-29T10:12:07;94608.59;;;20.13;71.76
47636;BME280;33364;50.766;15.338;2023-07-29T10:14:33;94599.47;;;19.99;71.68
47636;BME280;33364;50.766;15.338;2023-07-29T10:17:00;94611.06;;;20.03;72.32
47636;BME280;33364;50.766;15.338;2023-07-29T10:19:26;94603.84;;;20.07;72.47
47636;BME280;33364;50.766;15.338;2023-07-29T10:21:52;94602.34;;;20.09;72.71
47636;BME280;33364;50.766;15.338;2023-07-29T10:24:19;94611.19;;;20.10;73.37
47636;BME280;33364;50.766;15.338;2023-07-29T10:26:49;94612.88;;;20.18;72.84
47636;BME280;33364;50.766;15.338;2023-07-29T10:29:19;94612.81;;;20.14;72.80
47636;BME280;33364;50.766;15.338;2023-07-29T10:31:46;94615.22;;;20.19;72.11
47636;BME280;33364;50.766;15.338;2023-07-29T10:34:13;94618.31;;;20.21;72.34
47636;BME280;33364;50.766;15.338;2023-07-29T10:36:40;94616.28;;;20.34;72.29
47636;BME280;33364;50.766;15.338;2023-07-29T10:39:07;94609.72;;;20.32;72.75
47636;BME280;33364;50.766;15.338;2023-07-29T10:41:59;94615.28;;;20.23;72.77
47636;BME280;33364;50.766;15.338;2023-07-29T10:47:16;94599.56;;;20.02;72.31
47636;BME280;33364;50.766;15.338;2023-07-29T10:49:43;94596.25;;;20.09;72.63
47636;BME280;33364;50.766;15.338;2023-07-29T10:52:14;94596.72;;;19.95;73.46
47636;BME280;33364;50.766;15.338;2023-07-29T10:54:47;94595.53;;;19.93;74.36
47636;BME280;33364;50.766;15.338;2023-07-29T10:57:14;94599.00;;;19.93;73.40
47636;BME280;33364;50.766;15.338;2023-07-29T10:59:41;94593.28;;;19.95;73.68
47636;BME280;33364;50.766;15.338;2023-07-29T11:02:19;94585.44;;;20.05;73.17
47636;BME280;33364;50.766;15.338;2023-07-29T11:04:50;94573.22;;;20.27;72.21
47636;BME280;33364;50.766;15.338;2023-07-29T11:09:52;94570.81;;;21.62;70.08
47636;BME280;33364;50.766;15.338;2023-07-29T11:18:08;94553.09;;;22.65;63.85
47636;BME280;33364;50.766;15.338;2023-07-29T11:20:35;94550.34;;;22.98;64.12
47636;BME280;33364;50.766;15.338;2023-07-29T11:23:03;94555.66;;;22.88;65.65
47636;BME280;33364;50.766;15.338;2023-07-29T11:25:30;94546.72;;;22.36;62.91
47636;BME280;33364;50.766;15.338;2023-07-29T11:27:58;94555.38;;;22.22;64.24
47636;BME280;33364;50.766;15.338;2023-07-29T11:30:24;94543.00;;;21.81;65.30
47636;BME280;33364;50.766;15.338;2023-07-29T11:32:55;94538.56;;;21.62;65.04
47636;BME280;33364;50.766;15.338;2023-07-29T11:35:21;94538.78;;;22.13;64.46
47636;BME280;33364;50.766;15.338;2023-07-29T11:37:49;94533.81;;;22.56;63.34
47636;BME280;33364;50.766;15.338;2023-07-29T11:40:19;94524.19;;;22.99;63.34
47636;BME280;33364;50.766;15.338;2023-07-29T11:42:46;94517.38;;;23.15;61.59
47636;BME280;33364;50.766;15.338;2023-07-29T11:45:13;94520.44;;;22.66;62.80
47636;BME280;33364;50.766;15.338;2023-07-29T11:47:39;94512.66;;;22.54;63.36
47636;BME280;33364;50.766;15.338;2023-07-29T11:50:08;94504.56;;;22.54;62.93
47636;BME280;33364;50.766;15.338;2023-07-29T11:52:41;94517.56;;;22.45;64.11
47636;BME280;33364;50.766;15.338;2023-07-29T11:55:07;94509.44;;;22.38;63.42
47636;BME280;33364;50.766;15.338;2023-07-29T11:57:36;94513.00;;;22.49;63.48
47636;BME280;33364;50.766;15.338;2023-07-29T12:00:06;94514.53;;;22.50;62.95
47636;BME280;33364;50.766;15.338;2023-07-29T12:02:36;94513.16;;;22.67;61.74
47636;BME280;33364;50.766;15.338;2023-07-29T12:05:03;94509.50;;;22.89;61.32
47636;BME280;33364;50.766;15.338;2023-07-29T12:07:30;94502.44;;;22.74;61.10
47636;BME280;33364;50.766;15.338;2023-07-29T12:09:56;94506.34;;;22.80;61.56
47636;BME280;33364;50.766;15.338;2023-07-29T12:12:22;94509.38;;;22.31;61.12
47636;BME280;33364;50.766;15.338;2023-07-29T12:14:48;94509.88;;;22.07;61.84
47636;BME280;33364;50.766;15.338;2023-07-29T12:17:15;94504.34;;;22.26;62.80
47636;BME280;33364;50.766;15.338;2023-07-29T12:19:41;94503.94;;;22.27;63.31
47636;BME280;33364;50.766;15.338;2023-07-29T12:22:09;94504.75;;;22.31;62.67
47636;BME280;33364;50.766;15.338;2023-07-29T12:24:37;94499.00;;;22.33;61.65
47636;BME280;33364;50.766;15.338;2023-07-29T12:27:04;94495.53;;;22.32;61.88
47636;BME280;33364;50.766;15.338;2023-07-29T12:29:30;94503.13;;;22.20;61.11
47636;BME280;33364;50.766;15.338;2023-07-29T12:32:00;94500.00;;;22.18;61.20
47636;BME280;33364;50.766;15.338;2023-07-29T12:34:27;94491.22;;;21.87;62.81
47636;BME280;33364;50.766;15.338;2023-07-29T12:36:54;94488.00;;;21.75;62.23
47636;BME280;33364;50.766;15.338;2023-07-29T12:39:22;94477.59;;;21.70;62.66
47636;BME280;33364;50.766;15.338;2023-07-29T12:41:51;94483.06;;;21.77;63.60
47636;BME280;33364;50.766;15.338;2023-07-29T12:44:17;94471.56;;;21.80;64.03
47636;BME280;33364;50.766;15.338;2023-07-29T12:46:43;94470.09;;;21.86;62.36
47636;BME280;33364;50.766;15.338;2023-07-29T12:49:09;94470.44;;;21.84;63.16
47636;BME280;33364;50.766;15.338;2023-07-29T12:51:35;94469.75;;;21.58;63.42
47636;BME280;33364;50.766;15.338;2023-07-29T12:54:05;94464.13;;;21.36;63.61
47636;BME280;33364;50.766;15.338;2023-07-29T12:56:32;94468.63;;;21.25;65.33
47636;BME280;33364;50.766;15.338;2023-07-29T12:58:58;94454.09;;;21.30;64.84
47636;BME280;33364;50.766;15.338;2023-07-29T13:01:25;94460.81;;;21.17;66.41
47636;BME280;33364;50.766;15.338;2023-07-29T13:03:51;94461.47;;;21.10;67.33
47636;BME280;33364;50.766;15.338;2023-07-29T13:06:17;94459.56;;;21.11;67.81
47636;BME280;33364;50.766;15.338;2023-07-29T13:08:44;94460.97;;;21.01;67.28